Time;durP1;ratioP1;P1;durP2;ratioP2;P2;SDS_P1;SDS_P2;PMS_P1;PMS_P2;Temp;Humidity;BMP_temperature;BMP_pressure;BME280_temperature;BME280_humidity;BME280_pressure;Samples;Min_cycle;Max_cycle;Signal;HPM_P1;HPM_P2
2023/05/28 00:00:26;;;;;;;10.82;4.80;;;10.80;88.20;;;;;;5046149;28;20036;-67
2023/05/28 00:02:51;;;;;;;14.52;4.85;;;10.80;88.10;;;;;;5044242;28;20040;-67
2023/05/28 00:05:17;;;;;;;13.13;4.78;;;10.70;88.10;;;;;;5050660;28;20128;-68
2023/05/28 00:07:43;;;;;;;14.50;5.10;;;10.60;88.00;;;;;;5049160;28;20111;-67
2023/05/28 00:10:09;;;;;;;12.52;4.95;;;10.60;88.10;;;;;;5046256;28;20342;-68
2023/05/28 00:12:34;;;;;;;12.60;5.38;;;10.50;88.50;;;;;;5050310;28;20025;-66
2023/05/28 00:15:00;;;;;;;18.85;4.85;;;10.60;88.70;;;;;;5047612;28;20100;-67
2023/05/28 00:17:25;;;;;;;18.27;5.18;;;10.50;88.90;;;;;;5045997;28;20033;-67
2023/05/28 00:19:51;;;;;;;17.35;5.28;;;10.50;88.80;;;;;;5046032;28;20040;-67
2023/05/28 00:22:16;;;;;;;14.27;5.00;;;10.40;88.50;;;;;;5048418;28;20027;-67
2023/05/28 00:24:41;;;;;;;12.90;5.18;;;10.40;88.50;;;;;;5056996;28;20037;-67
2023/05/28 00:27:07;;;;;;;14.60;5.03;;;10.30;88.10;;;;;;5043101;28;20075;-67
2023/05/28 00:29:33;;;;;;;15.52;5.05;;;10.20;88.20;;;;;;5043198;28;20033;-67
2023/05/28 00:31:58;;;;;;;13.13;4.97;;;10.20;88.50;;;;;;5042521;28;20409;-66
2023/05/28 00:34:24;;;;;;;15.30;5.20;;;10.10;88.50;;;;;;5047377;28;20037;-67
2023/05/28 00:36:50;;;;;;;11.07;4.90;;;10.10;89.20;;;;;;5047400;28;20483;-67
2023/05/28 00:39:16;;;;;;;12.88;5.28;;;10.10;89.20;;;;;;5048916;28;20097;-67
2023/05/28 00:41:42;;;;;;;17.30;6.03;;;10.00;89.90;;;;;;5045129;28;20054;-66
2023/05/28 00:44:08;;;;;;;14.07;4.97;;;10.00;90.50;;;;;;5043435;28;20107;-67
2023/05/28 00:46:35;;;;;;;16.83;5.93;;;9.90;90.20;;;;;;5039663;28;20057;-67
2023/05/28 00:49:01;;;;;;;13.90;5.60;;;9.90;90.20;;;;;;5050991;28;20066;-67
2023/05/28 00:51:28;;;;;;;15.20;5.43;;;9.90;90.60;;;;;;5048914;28;20050;-67
2023/05/28 00:53:54;;;;;;;15.90;5.65;;;9.80;90.50;;;;;;5048237;28;20025;-69
2023/05/28 00:56:19;;;;;;;17.02;6.20;;;9.80;90.80;;;;;;5038935;28;20048;-67
2023/05/28 00:58:48;;;;;;;14.60;5.35;;;9.80;91.30;;;;;;5048528;28;20090;-67
2023/05/28 01:01:13;;;;;;;15.77;5.65;;;9.80;91.40;;;;;;5044335;28;20048;-68
2023/05/28 01:03:39;;;;;;;13.70;5.13;;;9.80;91.40;;;;;;5046241;28;20048;-67
2023/05/28 01:06:11;;;;;;;15.63;5.40;;;9.70;91.00;;;;;;5045078;28;20026;-69
2023/05/28 01:08:40;;;;;;;13.45;5.10;;;9.70;91.40;;;;;;5045843;28;20036;-68
2023/05/28 01:11:10;;;;;;;14.88;5.40;;;9.70;91.20;;;;;;5045900;28;20033;-68
2023/05/28 01:13:37;;;;;;;19.27;5.55;;;9.60;91.40;;;;;;5049584;28;20029;-68
2023/05/28 01:16:02;;;;;;;13.23;5.72;;;9.60;91.30;;;;;;5042616;28;20033;-68
2023/05/28 01:18:29;;;;;;;17.52;5.13;;;9.60;91.50;;;;;;5048450;28;20461;-67
2023/05/28 01:20:55;;;;;;;18.65;5.53;;;9.60;91.60;;;;;;5047369;28;20043;-67
2023/05/28 01:23:23;;;;;;;15.88;5.97;;;9.60;92.00;;;;;;5046550;28;20021;-67
2023/05/28 01:25:52;;;;;;;13.93;5.85;;;9.60;92.30;;;;;;5044489;28;20025;-68
2023/05/28 01:28:19;;;;;;;15.20;5.63;;;9.50;91.80;;;;;;5043496;28;20020;-68
2023/05/28 01:30:45;;;;;;;16.17;5.43;;;9.50;92.30;;;;;;5041434;28;20029;-68
2023/05/28 01:33:11;;;;;;;18.27;5.22;;;9.50;92.40;;;;;;5040711;28;20025;-68
2023/05/28 01:35:38;;;;;;;17.13;5.95;;;9.50;92.50;;;;;;5050152;28;20049;-67
2023/05/28 01:38:05;;;;;;;15.52;5.93;;;9.50;92.50;;;;;;5048426;28;21053;-68
2023/05/28 01:40:32;;;;;;;13.95;6.53;;;9.50;92.60;;;;;;5041880;28;20052;-67
2023/05/28 01:42:59;;;;;;;16.77;5.90;;;9.40;92.50;;;;;;5048346;28;20030;-67
2023/05/28 01:45:25;;;;;;;19.52;7.13;;;9.50;93.00;;;;;;5046335;28;20060;-67
2023/05/28 01:47:51;;;;;;;17.02;6.05;;;9.50;93.30;;;;;;5052981;28;20021;-67
2023/05/28 01:50:16;;;;;;;17.02;6.72;;;9.50;93.40;;;;;;5047858;28;20036;-69
2023/05/28 01:52:42;;;;;;;16.02;6.43;;;9.50;93.50;;;;;;5046565;28;20430;-67
2023/05/28 01:55:08;;;;;;;17.42;6.65;;;9.30;93.00;;;;;;5044660;28;20017;-68
2023/05/28 01:57:35;;;;;;;21.95;6.60;;;9.30;93.10;;;;;;5052449;28;20032;-67
2023/05/28 02:00:00;;;;;;;19.27;7.15;;;9.30;93.40;;;;;;5046050;28;20053;-68
2023/05/28 02:02:26;;;;;;;18.60;6.47;;;9.30;93.20;;;;;;5045284;28;20465;-67
2023/05/28 02:04:55;;;;;;;16.27;6.13;;;9.30;93.20;;;;;;5044991;28;20021;-67
2023/05/28 02:07:20;;;;;;;15.02;6.25;;;9.30;93.60;;;;;;5041744;28;20115;-67
2023/05/28 02:09:46;;;;;;;12.73;6.03;;;9.30;94.00;;;;;;5043795;28;20103;-67
2023/05/28 02:12:11;;;;;;;24.63;6.47;;;9.20;93.80;;;;;;5045281;28;20024;-67
2023/05/28 02:14:37;;;;;;;17.13;6.72;;;9.20;93.70;;;;;;5046792;28;20544;-68
2023/05/28 02:17:03;;;;;;;14.45;5.97;;;9.20;94.10;;;;;;5042387;28;20035;-67
2023/05/28 02:19:32;;;;;;;15.98;6.53;;;9.10;93.70;;;;;;5049346;28;20324;-67
2023/05/28 02:21:58;;;;;;;20.20;6.65;;;9.10;93.90;;;;;;5044607;28;20545;-68
2023/05/28 02:24:23;;;;;;;21.92;7.25;;;9.10;94.30;;;;;;5045375;28;20108;-68
2023/05/28 02:26:50;;;;;;;19.70;6.47;;;9.10;94.50;;;;;;5043606;28;20045;-67
2023/05/28 02:29:15;;;;;;;19.65;6.45;;;9.20;94.60;;;;;;5043100;28;20036;-68
2023/05/28 02:31:41;;;;;;;14.98;6.45;;;9.20;94.60;;;;;;5044244;28;20036;-68
2023/05/28 02:34:07;;;;;;;18.95;6.78;;;9.10;94.60;;;;;;5043974;28;20103;-68
2023/05/28 02:36:33;;;;;;;15.82;7.90;;;9.10;94.60;;;;;;5046707;28;20402;-67
2023/05/28 02:38:58;;;;;;;20.85;7.18;;;9.10;94.60;;;;;;5049098;28;20032;-67
2023/05/28 02:41:23;;;;;;;18.13;6.82;;;9.20;94.80;;;;;;5045084;28;20025;-68
2023/05/28 02:43:49;;;;;;;19.38;7.20;;;9.10;94.60;;;;;;5046964;28;20029;-67
2023/05/28 02:46:14;;;;;;;17.20;6.85;;;9.10;94.80;;;;;;5048180;28;20512;-68
2023/05/28 02:48:40;;;;;;;19.05;6.90;;;9.10;94.70;;;;;;5043352;28;20369;-67
2023/05/28 02:51:05;;;;;;;20.15;7.40;;;9.10;94.90;;;;;;5048031;28;20048;-67
2023/05/28 02:53:31;;;;;;;15.18;6.45;;;9.10;94.80;;;;;;5047116;28;20025;-68
2023/05/28 02:55:57;;;;;;;18.55;6.82;;;9.00;94.60;;;;;;5045775;28;20083;-67
2023/05/28 02:58:23;;;;;;;19.52;7.07;;;9.00;94.70;;;;;;5050325;28;20427;-67
2023/05/28 03:00:49;;;;;;;24.75;7.82;;;8.90;94.90;;;;;;5039800;28;20025;-67
2023/05/28 03:03:15;;;;;;;19.17;6.30;;;9.00;95.00;;;;;;5045328;28;20369;-67
2023/05/28 03:05:40;;;;;;;20.75;7.10;;;8.90;95.00;;;;;;5037746;28;20032;-67
2023/05/28 03:08:06;;;;;;;19.05;7.05;;;9.00;95.00;;;;;;5047009;28;20427;-67
2023/05/28 03:10:32;;;;;;;23.23;7.28;;;8.90;95.10;;;;;;5045711;28;20119;-67
2023/05/28 03:12:57;;;;;;;18.63;7.20;;;8.90;95.10;;;;;;5047031;28;20102;-68
2023/05/28 03:15:26;;;;;;;24.52;7.10;;;9.00;95.20;;;;;;5043176;28;20055;-67
2023/05/28 03:17:52;;;;;;;19.38;7.43;;;8.90;95.30;;;;;;5046319;28;20028;-68
2023/05/28 03:20:18;;;;;;;19.85;7.18;;;8.90;95.30;;;;;;5052632;28;20017;-67
2023/05/28 03:22:43;;;;;;;21.00;7.68;;;9.00;95.10;;;;;;5049534;28;20033;-68
2023/05/28 03:25:09;;;;;;;16.23;7.15;;;8.90;95.10;;;;;;5050664;28;20021;-67
2023/05/28 03:27:35;;;;;;;22.83;7.85;;;9.00;95.30;;;;;;5050316;28;20075;-68
2023/05/28 03:30:00;;;;;;;15.05;6.72;;;9.00;95.40;;;;;;5047099;28;20044;-68
2023/05/28 03:32:26;;;;;;;17.23;6.80;;;8.90;95.00;;;;;;5045805;28;20368;-68
2023/05/28 03:34:51;;;;;;;17.98;7.72;;;8.90;94.80;;;;;;5044766;28;20023;-67
2023/05/28 03:37:17;;;;;;;18.77;6.78;;;8.90;94.90;;;;;;5053211;28;20364;-68
2023/05/28 03:39:43;;;;;;;18.50;7.28;;;8.90;94.90;;;;;;5052021;28;20365;-68
2023/05/28 03:42:09;;;;;;;18.60;7.43;;;8.90;95.00;;;;;;5049286;28;20448;-67
2023/05/28 03:44:34;;;;;;;17.90;7.13;;;8.90;94.90;;;;;;5045627;28;20025;-67
2023/05/28 03:47:00;;;;;;;20.27;7.90;;;9.00;94.90;;;;;;5046330;28;20465;-68
2023/05/28 03:49:26;;;;;;;14.07;6.88;;;9.00;95.20;;;;;;5045783;28;20033;-68
2023/05/28 03:51:52;;;;;;;19.58;7.40;;;9.00;95.20;;;;;;5044612;28;20516;-68
2023/05/28 03:54:17;;;;;;;14.38;7.30;;;9.10;95.40;;;;;;5049306;28;20032;-68
2023/05/28 03:56:43;;;;;;;22.15;7.38;;;9.10;95.50;;;;;;5049484;28;20033;-68
2023/05/28 03:59:08;;;;;;;18.55;7.57;;;9.20;95.40;;;;;;5053236;28;20033;-68
2023/05/28 04:01:35;;;;;;;15.82;7.13;;;9.20;95.20;;;;;;5043682;28;20355;-67
2023/05/28 04:04:01;;;;;;;20.98;7.35;;;9.30;95.50;;;;;;5047344;28;20029;-68
2023/05/28 04:06:27;;;;;;;19.23;8.20;;;9.30;95.30;;;;;;5050485;28;20029;-67
2023/05/28 04:08:52;;;;;;;20.42;8.13;;;9.30;95.00;;;;;;5047992;28;20024;-67
2023/05/28 04:11:18;;;;;;;17.02;7.38;;;9.30;95.00;;;;;;5050889;28;20037;-67
2023/05/28 04:13:44;;;;;;;17.40;7.88;;;9.30;95.00;;;;;;5049242;28;20029;-68
2023/05/28 04:16:09;;;;;;;17.42;7.78;;;9.30;95.00;;;;;;5044012;28;20025;-68
2023/05/28 04:18:35;;;;;;;19.35;7.88;;;9.30;94.90;;;;;;5046710;28;20070;-68
2023/05/28 04:21:00;;;;;;;17.20;8.18;;;9.30;94.90;;;;;;5051928;28;20040;-68
2023/05/28 04:23:26;;;;;;;17.80;7.78;;;9.30;95.00;;;;;;5048323;28;20036;-68
2023/05/28 04:25:53;;;;;;;17.85;7.13;;;9.40;95.00;;;;;;5046068;28;20029;-67
2023/05/28 04:28:19;;;;;;;21.58;7.30;;;9.40;94.90;;;;;;5049314;28;20051;-66
2023/05/28 04:30:44;;;;;;;24.80;10.02;;;9.50;95.00;;;;;;5040965;28;20024;-67
2023/05/28 04:33:10;;;;;;;21.08;8.82;;;9.50;94.90;;;;;;5042301;28;20041;-66
2023/05/28 04:35:35;;;;;;;21.55;8.35;;;9.60;95.00;;;;;;5047713;28;20044;-66
2023/05/28 04:38:01;;;;;;;21.83;8.48;;;9.70;95.00;;;;;;5048620;28;20025;-65
2023/05/28 04:40:26;;;;;;;18.65;7.75;;;9.80;94.80;;;;;;5051549;28;20032;-66
2023/05/28 04:42:53;;;;;;;22.75;8.13;;;9.80;94.80;;;;;;5041188;28;20375;-67
2023/05/28 04:45:19;;;;;;;18.75;7.03;;;9.90;94.70;;;;;;5042844;28;20025;-66
2023/05/28 04:47:44;;;;;;;19.17;7.93;;;9.90;94.70;;;;;;5031968;28;20970;-66
2023/05/28 04:50:10;;;;;;;17.77;7.70;;;10.00;94.70;;;;;;5044912;28;20029;-67
2023/05/28 04:52:35;;;;;;;16.38;6.50;;;10.10;94.60;;;;;;5039087;28;20036;-68
2023/05/28 04:55:04;;;;;;;17.73;7.32;;;10.20;94.70;;;;;;5040115;28;20032;-66
2023/05/28 04:57:29;;;;;;;16.25;7.65;;;10.30;94.70;;;;;;5041084;28;20510;-65
2023/05/28 04:59:55;;;;;;;19.05;8.27;;;10.40;94.70;;;;;;5041366;28;20112;-66
2023/05/28 05:02:21;;;;;;;21.92;8.30;;;10.50;94.60;;;;;;5032187;28;20057;-66
2023/05/28 05:04:47;;;;;;;20.92;8.15;;;10.50;94.50;;;;;;5039966;28;20028;-65
2023/05/28 05:07:14;;;;;;;19.58;7.32;;;10.70;94.20;;;;;;5040330;28;20020;-67
2023/05/28 05:09:40;;;;;;;21.20;8.18;;;10.80;94.10;;;;;;5042899;28;20365;-67
2023/05/28 05:12:06;;;;;;;16.73;7.13;;;10.90;94.10;;;;;;5048728;28;20040;-66
2023/05/28 05:14:32;;;;;;;19.65;7.38;;;11.00;94.00;;;;;;5043686;28;20418;-66
2023/05/28 05:16:58;;;;;;;18.25;6.72;;;11.10;93.70;;;;;;5043727;28;20140;-67
2023/05/28 05:19:25;;;;;;;18.38;7.57;;;11.20;93.60;;;;;;5046282;28;20059;-67
2023/05/28 05:21:51;;;;;;;21.48;8.07;;;11.40;93.70;;;;;;5047290;28;20025;-67
2023/05/28 05:24:16;;;;;;;21.92;7.47;;;11.50;93.50;;;;;;5045929;28;20048;-67
2023/05/28 05:26:42;;;;;;;24.95;7.78;;;11.60;93.00;;;;;;5039324;28;20401;-66
2023/05/28 05:29:07;;;;;;;19.42;7.20;;;11.80;92.70;;;;;;5044178;28;20106;-66
2023/05/28 05:31:33;;;;;;;16.15;6.57;;;12.00;92.20;;;;;;5029987;28;20140;-68
2023/05/28 05:33:58;;;;;;;16.52;6.68;;;12.20;91.70;;;;;;5038787;28;20107;-69
2023/05/28 05:36:23;;;;;;;15.05;5.90;;;12.50;91.10;;;;;;5055689;28;20025;-68
2023/05/28 05:38:49;;;;;;;19.58;6.38;;;12.70;90.80;;;;;;5047123;28;20331;-68
2023/05/28 05:41:15;;;;;;;16.08;6.43;;;12.90;90.20;;;;;;5044834;28;20400;-68
2023/05/28 05:43:40;;;;;;;12.00;5.63;;;13.20;89.50;;;;;;5048491;28;20039;-68
2023/05/28 05:46:06;;;;;;;15.05;5.63;;;13.50;89.00;;;;;;5043054;28;20393;-69
2023/05/28 05:48:31;;;;;;;14.50;5.45;;;13.80;88.50;;;;;;5047272;28;20089;-68
2023/05/28 05:50:58;;;;;;;13.88;4.93;;;14.10;87.30;;;;;;5045370;28;20035;-68
2023/05/28 05:53:24;;;;;;;12.85;4.63;;;14.30;84.90;;;;;;5041372;28;20315;-68
2023/05/28 05:55:50;;;;;;;13.57;4.40;;;14.50;84.20;;;;;;5042449;28;20063;-68
2023/05/28 05:58:16;;;;;;;12.88;4.75;;;14.70;83.40;;;;;;5040261;28;20025;-68
2023/05/28 06:00:42;;;;;;;12.75;4.45;;;15.00;82.70;;;;;;5041367;28;20091;-69
2023/05/28 06:03:07;;;;;;;12.23;4.20;;;15.10;81.40;;;;;;5040729;28;20036;-69
2023/05/28 06:05:34;;;;;;;12.05;4.00;;;15.20;81.30;;;;;;5039447;28;20040;-69
2023/05/28 06:08:00;;;;;;;11.82;4.30;;;15.20;79.10;;;;;;5039615;28;20361;-69
2023/05/28 06:10:26;;;;;;;11.77;4.10;;;15.30;78.60;;;;;;5034067;28;20029;-69
2023/05/28 06:12:51;;;;;;;13.32;3.80;;;15.40;79.20;;;;;;5046888;28;20035;-68
2023/05/28 06:15:17;;;;;;;11.63;3.72;;;15.60;78.90;;;;;;5040475;28;20017;-68
2023/05/28 06:17:43;;;;;;;11.73;4.05;;;15.70;79.60;;;;;;5044880;28;20087;-68
2023/05/28 06:20:09;;;;;;;7.53;3.30;;;15.70;78.50;;;;;;5038647;28;20120;-69
2023/05/28 06:22:35;;;;;;;11.70;4.38;;;15.90;77.60;;;;;;5045138;28;20044;-68
2023/05/28 06:25:00;;;;;;;8.90;4.22;;;16.10;76.20;;;;;;5046939;28;20928;-68
2023/05/28 06:27:27;;;;;;;11.63;3.47;;;16.20;76.50;;;;;;5043748;28;20082;-69
2023/05/28 06:29:52;;;;;;;10.02;4.15;;;16.50;75.80;;;;;;5043241;28;20021;-70
2023/05/28 06:32:18;;;;;;;9.38;3.40;;;16.70;74.90;;;;;;5044395;28;20079;-68
2023/05/28 06:34:43;;;;;;;14.02;3.95;;;16.90;71.30;;;;;;5047157;28;20025;-70
2023/05/28 06:37:09;;;;;;;9.45;3.25;;;17.00;70.80;;;;;;5042302;28;20029;-68
2023/05/28 06:39:34;;;;;;;11.38;3.65;;;17.10;69.80;;;;;;5040798;28;20025;-68
2023/05/28 06:42:00;;;;;;;10.23;3.55;;;17.30;69.90;;;;;;5043576;28;20041;-68
2023/05/28 06:44:26;;;;;;;8.73;3.42;;;17.30;68.60;;;;;;5037373;28;20033;-72
2023/05/28 06:46:52;;;;;;;9.63;3.78;;;17.40;67.80;;;;;;5043164;28;20028;-71
2023/05/28 06:49:17;;;;;;;14.80;3.95;;;17.70;71.60;;;;;;5043534;28;20033;-70
2023/05/28 06:51:43;;;;;;;11.13;5.03;;;17.60;72.70;;;;;;5048084;28;20031;-70
2023/05/28 06:54:08;;;;;;;11.75;4.90;;;17.60;74.00;;;;;;5052960;28;20052;-70
2023/05/28 06:56:34;;;;;;;9.77;4.40;;;17.30;74.40;;;;;;5047769;28;20060;-70
2023/05/28 06:59:00;;;;;;;9.05;4.30;;;17.60;74.50;;;;;;5053659;28;20041;-71
2023/05/28 07:01:25;;;;;;;13.52;5.32;;;17.20;71.90;;;;;;5041287;28;20064;-70
2023/05/28 07:03:51;;;;;;;13.38;4.72;;;17.30;72.60;;;;;;5048528;28;20090;-71
2023/05/28 07:06:16;;;;;;;11.18;4.20;;;17.10;73.70;;;;;;5049248;28;20056;-70
2023/05/28 07:08:44;;;;;;;13.73;4.45;;;17.20;73.70;;;;;;5051376;28;20113;-70
2023/05/28 07:11:13;;;;;;;12.98;4.45;;;17.10;74.30;;;;;;5050216;28;20017;-71
2023/05/28 07:13:39;;;;;;;9.43;4.35;;;17.00;75.00;;;;;;5042712;28;20497;-70
2023/05/28 07:16:05;;;;;;;11.70;4.57;;;17.00;74.70;;;;;;5045985;28;20120;-71
2023/05/28 07:18:30;;;;;;;13.50;4.82;;;17.30;75.80;;;;;;5049784;28;20051;-71
2023/05/28 07:20:56;;;;;;;11.85;4.40;;;17.70;77.00;;;;;;5050787;28;20054;-71
2023/05/28 07:23:21;;;;;;;12.13;4.68;;;18.00;75.00;;;;;;5057154;28;20033;-71
2023/05/28 07:25:47;;;;;;;11.15;4.45;;;18.30;71.80;;;;;;5047807;28;20421;-71
2023/05/28 07:28:12;;;;;;;14.45;4.75;;;18.50;71.50;;;;;;5048194;28;20087;-71
2023/05/28 07:30:38;;;;;;;11.10;4.95;;;18.70;72.80;;;;;;5049598;28;20048;-74
2023/05/28 07:33:03;;;;;;;13.93;4.80;;;18.80;72.80;;;;;;5041335;28;20065;-71
2023/05/28 07:35:29;;;;;;;10.55;4.60;;;18.80;72.00;;;;;;5048071;28;20773;-73
2023/05/28 07:37:55;;;;;;;10.77;3.78;;;18.40;67.90;;;;;;5039341;28;20048;-71
2023/05/28 07:40:21;;;;;;;10.73;3.72;;;18.30;67.40;;;;;;5045924;28;20082;-71
2023/05/28 07:42:47;;;;;;;8.95;3.75;;;18.60;68.70;;;;;;5040736;28;20032;-72
2023/05/28 07:45:12;;;;;;;10.10;3.50;;;18.50;68.20;;;;;;5046251;28;20045;-72
2023/05/28 07:47:38;;;;;;;10.30;3.90;;;18.70;68.00;;;;;;5042683;28;20025;-71
2023/05/28 07:50:04;;;;;;;12.68;3.92;;;18.50;66.60;;;;;;5047694;28;20109;-72
2023/05/28 07:52:30;;;;;;;12.23;3.65;;;18.30;67.50;;;;;;5049106;28;20048;-71
2023/05/28 07:54:58;;;;;;;10.07;3.70;;;18.40;68.60;;;;;;5043191;28;20436;-70
2023/05/28 07:57:24;;;;;;;10.27;4.00;;;18.20;69.00;;;;;;5051803;28;20064;-71
2023/05/28 07:59:49;;;;;;;12.82;3.67;;;18.20;69.50;;;;;;5047430;28;20122;-71
2023/05/28 08:02:15;;;;;;;11.45;3.60;;;18.30;72.20;;;;;;5048258;28;20037;-70
2023/05/28 08:04:40;;;;;;;11.18;3.63;;;18.50;70.10;;;;;;5045801;28;20048;-71
2023/05/28 08:07:06;;;;;;;10.80;4.28;;;18.50;71.30;;;;;;5041636;28;20366;-71
2023/05/28 08:09:31;;;;;;;13.93;3.90;;;18.40;70.30;;;;;;5057752;28;20059;-71
2023/05/28 08:11:57;;;;;;;13.73;4.18;;;18.60;71.40;;;;;;5052691;28;20033;-71
2023/05/28 08:14:22;;;;;;;11.02;4.68;;;18.50;71.70;;;;;;5048293;28;20106;-71
2023/05/28 08:16:48;;;;;;;13.68;4.85;;;18.30;73.30;;;;;;5043605;28;20032;-71
2023/05/28 08:19:13;;;;;;;11.63;4.82;;;18.30;71.10;;;;;;5043103;28;20025;-71
2023/05/28 08:21:39;;;;;;;17.05;5.63;;;18.60;72.20;;;;;;5050765;28;20037;-70
2023/05/28 08:24:05;;;;;;;12.73;4.85;;;18.60;70.70;;;;;;5045479;28;20025;-72
2023/05/28 08:26:31;;;;;;;9.57;4.63;;;18.80;70.90;;;;;;5065553;28;20045;-70
2023/05/28 08:28:57;;;;;;;12.00;5.10;;;19.30;70.10;;;;;;5049582;28;20034;-70
2023/05/28 08:31:22;;;;;;;18.67;5.47;;;19.40;69.80;;;;;;5050474;28;20025;-70
2023/05/28 08:33:48;;;;;;;13.63;4.43;;;19.60;68.80;;;;;;5047761;28;20025;-71
2023/05/28 08:36:13;;;;;;;16.33;5.00;;;19.60;68.70;;;;;;5054244;28;20044;-71
2023/05/28 08:38:39;;;;;;;15.73;5.35;;;20.10;69.60;;;;;;5046336;28;20445;-76
2023/05/28 08:41:05;;;;;;;11.55;4.57;;;20.50;68.10;;;;;;5044073;28;20073;-69
2023/05/28 08:43:31;;;;;;;15.13;5.05;;;20.70;67.60;;;;;;5044629;28;20061;-70
2023/05/28 08:45:56;;;;;;;13.63;4.68;;;21.10;68.40;;;;;;5042123;28;20540;-72
2023/05/28 08:48:23;;;;;;;13.57;4.20;;;21.00;65.00;;;;;;5045096;28;20040;-68
2023/05/28 08:50:51;;;;;;;11.55;3.83;;;21.10;64.10;;;;;;5049717;28;20033;-68
2023/05/28 08:53:20;;;;;;;13.65;4.10;;;21.10;60.70;;;;;;5041486;28;20087;-73
2023/05/28 08:55:46;;;;;;;13.00;4.40;;;21.50;66.90;;;;;;5045164;28;20025;-74
2023/05/28 08:58:12;;;;;;;14.30;4.35;;;21.30;58.80;;;;;;5048847;28;20033;-73
2023/05/28 09:00:38;;;;;;;9.52;3.78;;;21.40;62.20;;;;;;5048828;28;20025;-73
2023/05/28 09:03:07;;;;;;;10.70;3.45;;;21.70;63.30;;;;;;5049347;28;20033;-72
2023/05/28 09:05:36;;;;;;;12.68;3.33;;;22.00;59.40;;;;;;5047221;28;20046;-74
2023/05/28 09:08:04;;;;;;;11.80;3.83;;;22.10;59.80;;;;;;5043798;28;20025;-73
2023/05/28 09:10:30;;;;;;;12.10;3.60;;;21.70;57.60;;;;;;5044129;28;20028;-69
2023/05/28 09:13:00;;;;;;;9.05;3.35;;;22.30;57.80;;;;;;5050077;28;20033;-70
2023/05/28 09:15:25;;;;;;;13.43;4.07;;;22.00;56.50;;;;;;5042904;28;20031;-68
2023/05/28 09:17:51;;;;;;;9.30;3.15;;;22.00;57.60;;;;;;5035743;28;20620;-69
2023/05/28 09:20:17;;;;;;;8.90;3.42;;;22.20;56.90;;;;;;5044972;28;20021;-71
2023/05/28 09:22:43;;;;;;;15.40;3.70;;;22.20;56.90;;;;;;5043620;28;20167;-69
2023/05/28 09:25:09;;;;;;;11.35;3.55;;;22.20;58.20;;;;;;5049567;28;20469;-69
2023/05/28 09:27:38;;;;;;;12.98;4.28;;;22.40;56.80;;;;;;5041774;28;20055;-69
2023/05/28 09:30:07;;;;;;;12.10;3.75;;;22.60;56.30;;;;;;5044825;28;20032;-70
2023/05/28 09:32:34;;;;;;;12.13;3.23;;;22.90;54.80;;;;;;5046922;28;20432;-70
2023/05/28 09:35:00;;;;;;;8.75;2.92;;;23.40;57.00;;;;;;5046790;28;20421;-69
2023/05/28 09:37:28;;;;;;;10.43;3.30;;;23.80;53.30;;;;;;5041730;28;20411;-69
2023/05/28 09:40:01;;;;;;;11.35;4.22;;;23.50;52.50;;;;;;5041075;28;20025;-69
2023/05/28 09:42:33;;;;;;;9.65;3.72;;;22.50;52.00;;;;;;5049579;28;20029;-69
2023/05/28 09:45:00;;;;;;;7.03;2.92;;;22.40;52.00;;;;;;5045987;28;20521;-69
2023/05/28 09:47:25;;;;;;;15.00;3.13;;;22.50;53.80;;;;;;5044883;28;20106;-69
2023/05/28 09:49:51;;;;;;;12.93;3.53;;;23.00;53.50;;;;;;5048807;28;20087;-69
2023/05/28 09:52:21;;;;;;;10.30;3.53;;;22.90;51.40;;;;;;5044380;28;20028;-69
2023/05/28 09:54:59;;;;;;;10.73;3.40;;;23.00;51.80;;;;;;5051408;28;20033;-71
2023/05/28 09:57:30;;;;;;;9.95;3.42;;;23.40;51.30;;;;;;5048148;28;20511;-69
2023/05/28 09:59:56;;;;;;;8.60;2.85;;;23.50;50.50;;;;;;5044596;28;20575;-69
2023/05/28 10:02:37;;;;;;;10.32;3.13;;;23.60;51.90;;;;;;5042106;28;20028;-69
2023/05/28 10:05:02;;;;;;;;;;;23.80;50.80;;;;;;5045054;28;20033;-68
2023/05/28 10:07:28;;;;;;;10.77;2.85;;;24.00;49.20;;;;;;5038641;28;19911;-71
2023/05/28 10:09:57;;;;;;;8.88;3.03;;;23.80;47.70;;;;;;5042893;28;20033;-69
2023/05/28 10:12:28;;;;;;;10.35;4.20;;;24.40;47.20;;;;;;5045716;28;20086;-69
2023/05/28 10:14:55;;;;;;;9.90;2.85;;;24.50;45.80;;;;;;5046113;28;20078;-71
2023/05/28 10:17:21;;;;;;;10.40;3.05;;;23.70;45.90;;;;;;5045253;28;20020;-69
2023/05/28 10:19:47;;;;;;;10.57;2.88;;;23.40;47.70;;;;;;5046374;28;20033;-69
2023/05/28 10:22:14;;;;;;;9.25;3.10;;;23.40;47.00;;;;;;5040326;28;20033;-69
2023/05/28 10:24:40;;;;;;;8.30;3.00;;;23.30;47.10;;;;;;5050500;28;20071;-69
2023/05/28 10:27:09;;;;;;;8.13;2.88;;;23.20;47.40;;;;;;5048073;28;20118;-70
2023/05/28 10:29:41;;;;;;;10.07;3.28;;;24.00;47.60;;;;;;5036752;28;20032;-70
2023/05/28 10:32:07;;;;;;;8.13;2.70;;;24.00;46.70;;;;;;5039825;28;20036;-70
2023/05/28 10:34:36;;;;;;;8.40;3.40;;;24.20;48.20;;;;;;5041662;28;20367;-70
2023/05/28 10:37:09;;;;;;;8.52;3.30;;;24.90;45.00;;;;;;5040220;28;20032;-70
2023/05/28 10:39:41;;;;;;;8.48;2.95;;;24.50;44.50;;;;;;5035944;28;20033;-69
2023/05/28 10:42:14;;;;;;;7.93;2.55;;;24.50;44.30;;;;;;5039008;28;20143;-70
2023/05/28 10:45:09;;;;;;;7.60;2.67;;;24.20;45.80;;;;;;5046267;28;20029;-69
2023/05/28 10:47:40;;;;;;;9.63;2.70;;;24.70;46.60;;;;;;5041522;28;20108;-69
2023/05/28 10:50:12;;;;;;;8.30;3.28;;;24.60;49.00;;;;;;5044524;28;20028;-70
2023/05/28 10:52:38;;;;;;;6.20;2.92;;;24.90;45.00;;;;;;5046467;28;20087;-70
2023/05/28 10:55:07;;;;;;;10.40;3.05;;;25.20;45.30;;;;;;5045114;28;20032;-70
2023/05/28 10:57:47;;;;;;;8.60;2.95;;;26.00;46.40;;;;;;5043261;28;20049;-69
2023/05/28 11:00:21;;;;;;;6.97;3.05;;;26.20;44.30;;;;;;5047808;28;20041;-70
2023/05/28 11:02:51;;;;;;;9.32;3.25;;;25.30;43.70;;;;;;5042421;28;20397;-70
2023/05/28 11:05:22;;;;;;;7.60;2.92;;;25.50;44.90;;;;;;5062848;28;20102;-70
2023/05/28 11:07:48;;;;;;;5.63;2.63;;;25.50;41.70;;;;;;5045178;28;20029;-70
2023/05/28 11:10:15;;;;;;;6.63;2.70;;;25.60;43.80;;;;;;5044691;28;20103;-69
2023/05/28 11:12:42;;;;;;;8.20;2.72;;;25.30;42.30;;;;;;5040066;28;20095;-69
2023/05/28 11:15:10;;;;;;;9.02;3.10;;;24.80;45.00;;;;;;5042162;28;20065;-69
2023/05/28 11:17:40;;;;;;;9.90;3.15;;;25.00;43.60;;;;;;5040801;28;20029;-69
2023/05/28 11:20:18;;;;;;;10.80;5.70;;;24.40;44.60;;;;;;5044386;28;20440;-70
2023/05/28 11:22:44;;;;;;;6.88;3.17;;;25.00;45.80;;;;;;5045355;28;20123;-69
2023/05/28 11:25:11;;;;;;;8.55;2.92;;;25.30;42.90;;;;;;5048210;28;20144;-69
2023/05/28 11:27:39;;;;;;;7.85;2.90;;;25.40;46.60;;;;;;5046090;28;20056;-69
2023/05/28 11:30:18;;;;;;;12.93;3.10;;;25.50;43.10;;;;;;5046710;28;20020;-69
2023/05/28 11:32:45;;;;;;;10.13;2.72;;;25.10;44.30;;;;;;5035419;28;20462;-70
2023/05/28 11:35:12;;;;;;;9.65;3.03;;;25.40;43.90;;;;;;5045895;28;20079;-69
2023/05/28 11:37:39;;;;;;;11.35;3.13;;;25.60;43.00;;;;;;5042786;28;20084;-69
2023/05/28 11:40:09;;;;;;;10.95;6.90;;;25.80;41.90;;;;;;5064068;28;20036;-70
2023/05/28 11:42:35;;;;;;;9.43;3.00;;;26.70;42.00;;;;;;5050873;28;20044;-69
2023/05/28 11:45:01;;;;;;;6.40;2.60;;;26.10;39.60;;;;;;5050431;28;20424;-69
2023/05/28 11:47:26;;;;;;;8.77;2.90;;;26.60;40.70;;;;;;5046329;28;20485;-69
2023/05/28 11:49:52;;;;;;;8.52;3.28;;;27.30;41.50;;;;;;5041900;28;20029;-70
2023/05/28 11:52:20;;;;;;;7.80;2.80;;;25.80;41.20;;;;;;5043316;28;20064;-70
2023/05/28 11:54:51;;;;;;;7.25;2.92;;;26.50;40.50;;;;;;5044428;28;20631;-69
2023/05/28 11:57:24;;;;;;;10.30;2.80;;;26.90;41.00;;;;;;5040427;28;20072;-71
2023/05/28 11:59:58;;;;;;;8.60;2.88;;;27.00;39.20;;;;;;5051943;28;20499;-71
2023/05/28 12:02:24;;;;;;;8.82;3.20;;;27.00;39.70;;;;;;5040498;28;20025;-70
2023/05/28 12:04:57;;;;;;;7.82;3.03;;;27.50;38.80;;;;;;5050229;28;20071;-70
2023/05/28 12:07:34;;;;;;;10.30;3.20;;;27.20;41.00;;;;;;5044079;28;20037;-70
2023/05/28 12:10:11;;;;;;;9.93;3.10;;;26.60;42.50;;;;;;5051660;28;20345;-70
2023/05/28 12:12:42;;;;;;;7.55;2.80;;;26.10;42.80;;;;;;5047556;28;20033;-69
2023/05/28 12:15:08;;;;;;;9.23;2.90;;;25.80;45.20;;;;;;5048309;28;20055;-70
2023/05/28 12:17:39;;;;;;;11.32;3.28;;;26.30;43.60;;;;;;5047111;28;20033;-70
2023/05/28 12:20:06;;;;;;;9.95;3.45;;;26.80;40.50;;;;;;5041489;28;20020;-70
2023/05/28 12:22:31;;;;;;;11.30;3.17;;;26.90;39.80;;;;;;5049759;28;21823;-70
2023/05/28 12:24:57;;;;;;;8.38;3.05;;;27.60;41.60;;;;;;5050879;28;20032;-70
2023/05/28 12:27:23;;;;;;;9.32;2.92;;;27.40;40.70;;;;;;5043846;28;20655;-70
2023/05/28 12:29:48;;;;;;;7.20;2.63;;;28.10;38.20;;;;;;5046473;28;20451;-76
2023/05/28 12:32:14;;;;;;;9.00;2.75;;;27.80;39.10;;;;;;5040356;28;20453;-70
2023/05/28 12:34:40;;;;;;;6.55;3.08;;;28.40;40.00;;;;;;5042622;28;20450;-71
2023/05/28 12:37:05;;;;;;;7.35;3.30;;;28.20;35.90;;;;;;5038902;28;20500;-70
2023/05/28 12:39:31;;;;;;;9.98;3.17;;;27.40;39.30;;;;;;5050217;28;20017;-71